地図

経路データ

SID SEASON NUMBER BASIN SUBBASIN NAME ISO_TIME NATURE LAT LON WMO_WIND WMO_PRES WMO_AGENCY TRACK_TYPE DIST2LAND LANDFALL IFLAG USA_AGENCY USA_ATCF_ID USA_LAT USA_LON USA_RECORD USA_STATUS USA_WIND USA_PRES USA_SSHS USA_R34_NE USA_R34_SE USA_R34_SW USA_R34_NW USA_R50_NE USA_R50_SE USA_R50_SW USA_R50_NW USA_R64_NE USA_R64_SE USA_R64_SW USA_R64_NW USA_POCI USA_ROCI USA_RMW USA_EYE TOKYO_LAT TOKYO_LON TOKYO_GRADE TOKYO_WIND TOKYO_PRES TOKYO_R50_DIR TOKYO_R50_LONG TOKYO_R50_SHORT TOKYO_R30_DIR TOKYO_R30_LONG TOKYO_R30_SHORT TOKYO_LAND CMA_LAT CMA_LON CMA_CAT CMA_WIND CMA_PRES HKO_LAT HKO_LON HKO_CAT HKO_WIND HKO_PRES NEWDELHI_LAT NEWDELHI_LON NEWDELHI_GRADE NEWDELHI_WIND NEWDELHI_PRES NEWDELHI_CI NEWDELHI_DP NEWDELHI_POCI REUNION_LAT REUNION_LON REUNION_TYPE REUNION_WIND REUNION_PRES REUNION_TNUM REUNION_CI REUNION_RMW REUNION_R34_NE REUNION_R34_SE REUNION_R34_SW REUNION_R34_NW REUNION_R50_NE REUNION_R50_SE REUNION_R50_SW REUNION_R50_NW REUNION_R64_NE REUNION_R64_SE REUNION_R64_SW REUNION_R64_NW BOM_LAT BOM_LON BOM_TYPE BOM_WIND BOM_PRES BOM_TNUM BOM_CI BOM_RMW BOM_R34_NE BOM_R34_SE BOM_R34_SW BOM_R34_NW BOM_R50_NE BOM_R50_SE BOM_R50_SW BOM_R50_NW BOM_R64_NE BOM_R64_SE BOM_R64_SW BOM_R64_NW BOM_ROCI BOM_POCI BOM_EYE BOM_POS_METHOD BOM_PRES_METHOD NADI_LAT NADI_LON NADI_CAT NADI_WIND NADI_PRES WELLINGTON_LAT WELLINGTON_LON WELLINGTON_WIND WELLINGTON_PRES DS824_LAT DS824_LON DS824_STAGE DS824_WIND DS824_PRES TD9636_LAT TD9636_LON TD9636_STAGE TD9636_WIND TD9636_PRES TD9635_LAT TD9635_LON TD9635_WIND TD9635_PRES TD9635_ROCI NEUMANN_LAT NEUMANN_LON NEUMANN_CLASS NEUMANN_WIND NEUMANN_PRES MLC_LAT MLC_LON MLC_CLASS MLC_WIND MLC_PRES USA_GUST BOM_GUST BOM_GUST_PER REUNION_GUST REUNION_GUST_PER USA_SEAHGT USA_SEARAD_NE USA_SEARAD_SE USA_SEARAD_SW USA_SEARAD_NW STORM_SPEED STORM_DIR
1949072S15173 1949 19 SP MM NOT_NAMED 1949-03-13 00:00:00 TS -15.3000 173.300 main 507 507 O________OO___ jtwc_sh SH191949 -15.3000 173.300 -1 -15.3000 173.300 TC -15.3000 173.300 2 5 229
1949072S15173 1949 19 SP MM NOT_NAMED 1949-03-13 03:00:00 TS -15.4524 173.115 main 515 515 P________PP___ SH191949 -15.4601 173.103 -1 -15.4601 173.103 TC -15.4371 173.141 2 5 232
1949072S15173 1949 19 SP MM NOT_NAMED 1949-03-13 06:00:00 TS -15.5898 172.918 main 529 528 O________OP___ jtwc_sh SH191949 -15.6000 172.900 -1 -15.6000 172.900 TC -15.5694 172.955 2 5 238
1949072S15173 1949 19 SP MM NOT_NAMED 1949-03-13 09:00:00 TS -15.7023 172.692 main 528 494 P________PP___ SH191949 -15.7074 172.680 -1 -15.7074 172.680 TC -15.6920 172.717 2 5 247
1949072S15173 1949 19 SP MM NOT_NAMED 1949-03-13 12:00:00 TS -15.8000 172.400 main 494 451 O________OO___ jtwc_sh SH191949 -15.8000 172.400 -1 -15.8000 172.400 TC -15.8000 172.400 2 7 253
1949072S15173 1949 19 SP MM NOT_NAMED 1949-03-13 15:00:00 TS -15.8973 172.008 main 451 407 P________PP___ SH191949 -15.9001 172.015 -1 -15.9001 172.015 TC -15.8916 171.995 2 8 256
1949072S15173 1949 19 SP MM NOT_NAMED 1949-03-13 18:00:00 TS -15.9928 171.587 main 407 363 O________OP___ jtwc_sh SH191949 -16.0000 171.600 -1 -16.0000 171.600 TC -15.9785 171.560 2 8 257
1949072S15173 1949 19 SP MM NOT_NAMED 1949-03-13 21:00:00 TS -16.0870 171.178 main 363 331 P________PP___ SH191949 -16.0926 171.183 -1 -16.0926 171.183 TC -16.0759 171.170 2 7 253
1949072S15173 1949 19 SP MM NOT_NAMED 1949-03-14 00:00:00 TS -16.2000 170.900 main 331 330 O________OO___ jtwc_sh SH191949 -16.2000 170.900 -1 -16.2000 170.900 TC -16.2000 170.900 2 4 229
1949072S15173 1949 19 SP MM NOT_NAMED 1949-03-14 03:00:00 TS -16.3365 170.877 main 330 330 P________PP___ SH191949 -16.3274 170.882 -1 -16.3274 170.882 TC -16.3547 170.865 2 3 165
1949072S15173 1949 19 SP MM NOT_NAMED 1949-03-14 06:00:00 TS -16.5132 170.984 main 341 341 O________OP___ jtwc_sh SH191949 -16.5000 171.000 -1 -16.5000 171.000 TC -16.5397 170.952 2 5 151
1949072S15173 1949 19 SP MM NOT_NAMED 1949-03-14 09:00:00 TS -16.7366 171.106 main 351 351 P________PP___ SH191949 -16.7275 171.115 -1 -16.7275 171.115 TC -16.7549 171.087 2 5 157
1949072S15173 1949 19 SP MM NOT_NAMED 1949-03-14 12:00:00 TS -17.0000 171.200 main 364 364 O________OO___ jtwc_sh SH191949 -17.0000 171.200 -1 -17.0000 171.200 TC -17.0000 171.200 2 6 173
1949072S15173 1949 19 SP MM NOT_NAMED 1949-03-14 15:00:00 TS -17.2908 171.178 main 370 362 P________PP___ SH191949 -17.2925 171.173 -1 -17.2925 171.173 TC -17.2875 171.190 2 6 188
1949072S15173 1949 19 SP MM NOT_NAMED 1949-03-14 18:00:00 TS -17.6000 171.115 main 368 368 O________OP___ jtwc_sh SH191949 -17.6000 171.100 -1 -17.6000 171.100 TC -17.6000 171.145 2 6 190
1949072S15173 1949 19 SP MM NOT_NAMED 1949-03-14 21:00:00 TS -17.9142 171.059 main 379 374 P________PP___ SH191949 -17.9150 171.050 -1 -17.9150 171.050 TC -17.9125 171.078 2 6 191
1949072S15173 1949 19 SP MM NOT_NAMED 1949-03-15 00:00:00 TS -18.2000 171.000 main 383 383 O________OO___ jtwc_sh SH191949 -18.2000 171.000 -1 -18.2000 171.000 TC -18.2000 171.000 2 5 192
1949072S15173 1949 19 SP MM NOT_NAMED 1949-03-15 03:00:00 TS -18.4223 170.948 main 385 385 P________PP___ SH191949 -18.4150 170.957 -1 -18.4150 170.957 TC -18.4369 170.928 2 4 195
1949072S15173 1949 19 SP MM NOT_NAMED 1949-03-15 06:00:00 TS -18.6150 170.883 main 397 395 O________OP___ jtwc_sh SH191949 -18.6000 170.900 -1 -18.6000 170.900 TC -18.6450 170.850 2 4 201
1949072S15173 1949 19 SP MM NOT_NAMED 1949-03-15 09:00:00 TS -18.8152 170.791 main 402 400 P________PP___ SH191949 -18.8075 170.800 -1 -18.8075 170.800 TC -18.8306 170.772 2 4 204
1949072S15173 1949 19 SP MM NOT_NAMED 1949-03-15 12:00:00 TS -19.0000 170.700 main 407 407 O________OO___ jtwc_sh SH191949 -19.0000 170.700 -1 -19.0000 170.700 TC -19.0000 170.700 2 4 199
1949072S15173 1949 19 SP MM NOT_NAMED 1949-03-15 15:00:00 TS -19.1460 170.671 main 415 415 P________PP___ SH191949 -19.1575 170.642 -1 -19.1575 170.642 TC -19.1231 170.727 2 3 188
1949072S15173 1949 19 SP MM NOT_NAMED 1949-03-15 18:00:00 TS -19.2796 170.649 main 423 423 O________OP___ jtwc_sh SH191949 -19.3000 170.600 -1 -19.3000 170.600 TC -19.2388 170.748 2 3 189
1949072S15173 1949 19 SP MM NOT_NAMED 1949-03-15 21:00:00 TS -19.4083 170.633 main 431 431 P________PP___ SH191949 -19.4198 170.602 -1 -19.4198 170.602 TC -19.3851 170.695 2 4 204
1949072S15173 1949 19 SP MM NOT_NAMED 1949-03-16 00:00:00 TS -19.6000 170.500 main 440 419 O________OO___ jtwc_sh SH191949 -19.6000 170.500 -1 -19.6000 170.500 TC -19.6000 170.500 2 7 219
1949072S15173 1949 19 SP MM NOT_NAMED 1949-03-16 03:00:00 TS -19.9327 170.179 main 419 351 P________PP___ SH191949 -19.9047 170.205 -1 -19.9047 170.205 TC -19.9887 170.127 2 11 226
1949072S15173 1949 19 SP MM NOT_NAMED 1949-03-16 06:00:00 TS -20.3456 169.667 main 351 259 O________OP___ jtwc_sh SH191949 -20.3000 169.700 -1 -20.3000 169.700 TC -20.4367 169.601 2 14 231
1949072S15173 1949 19 SP MM NOT_NAMED 1949-03-16 09:00:00 TS -20.8237 169.000 main 259 166 P________PP___ SH191949 -20.8024 169.026 -1 -20.8024 169.026 TC -20.8663 168.949 2 16 238
1949072S15173 1949 19 SP MM NOT_NAMED 1949-03-16 12:00:00 TS -21.2000 168.200 main 166 103 O________OO___ jtwc_sh SH191949 -21.2000 168.200 -1 -21.2000 168.200 TC -21.2000 168.200 2 16 255
1949072S15173 1949 19 SP MM NOT_NAMED 1949-03-16 15:00:00 TS -21.2456 167.332 main 106 53 P________PP___ SH191949 -21.2600 167.314 -1 -21.2600 167.314 TC -21.2169 167.368 2 17 271
1949072S15173 1949 19 SP MM NOT_NAMED 1949-03-16 18:00:00 TS -21.1826 166.421 main 45 11 O________OP___ jtwc_sh SH191949 -21.2000 166.400 -1 -21.2000 166.400 TC -21.1477 166.463 2 17 273
1949072S15173 1949 19 SP MM NOT_NAMED 1949-03-16 21:00:00 TS -21.1446 165.530 main 10 0 P________PP___ SH191949 -21.1523 165.519 -1 -21.1523 165.519 TC -21.1293 165.552 2 16 266
1949072S15173 1949 19 SP MM NOT_NAMED 1949-03-17 00:00:00 TS -21.3000 164.700 main 20 20 O________OO___ jtwc_sh SH191949 -21.3000 164.700 -1 -21.3000 164.700 TC -21.3000 164.700 2 16 245
1949072S15173 1949 19 SP MM NOT_NAMED 1949-03-17 03:00:00 TS -21.8213 163.949 main 112 112 P________PP___ SH191949 -21.8296 163.963 -1 -21.8296 163.963 TC -21.8046 163.921 2 18 226
1949072S15173 1949 19 SP MM NOT_NAMED 1949-03-17 06:00:00 TS -22.5717 163.270 main 212 212 O________OP___ jtwc_sh SH191949 -22.6000 163.300 -1 -22.6000 163.300 TC -22.5150 163.211 2 20 218
1949072S15173 1949 19 SP MM NOT_NAMED 1949-03-17 09:00:00 TS -23.3926 162.630 main 325 325 P________PP___ SH191949 -23.4050 162.648 -1 -23.4050 162.648 TC -23.3678 162.595 2 20 212
1949072S15173 1949 19 SP MM NOT_NAMED 1949-03-17 12:00:00 TS -24.3000 162.100 main 432 432 O________OO___ jtwc_sh SH191949 -24.3000 162.100 -1 -24.3000 162.100 TC -24.3000 162.100 2 20 205
1949072S15173 1949 19 SP MM NOT_NAMED 1949-03-17 15:00:00 TS -25.2378 161.698 main 535 535 P________PP___ SH191949 -25.2273 161.675 -1 -25.2273 161.675 TC -25.2590 161.743 2 20 198
1949072S15173 1949 19 SP MM NOT_NAMED 1949-03-17 18:00:00 TS -26.2105 161.433 main 643 643 O________OP___ jtwc_sh SH191949 -26.2000 161.400 -1 -26.2000 161.400 TC -26.2315 161.499 2 20 191
1949072S15173 1949 19 SP MM NOT_NAMED 1949-03-17 21:00:00 TS -27.2012 161.285 main 743 743 P________PP___ SH191949 -27.1950 161.262 -1 -27.1950 161.262 TC -27.2134 161.331 2 20 186
1949072S15173 1949 19 SP MM NOT_NAMED 1949-03-18 00:00:00 TS -28.2000 161.200 main 743 O________OO___ jtwc_sh SH191949 -28.2000 161.200 -1 -28.2000 161.200 TC -28.2000 161.200 2 20 184

デジタル台風データ・検索

IBTrACS Databaseについて

本データベースは、米国NOAAが公開する1842年以降の世界の熱帯低気圧のベストトラックデータアーカイブInternational Best Track Archive for Climate Stewardship (IBTrACS)を、ウェブで閲覧しやすい形式に変換したものです。

最終更新日:2021-12-01